Overview Statistics Trail Chart Weather Telemetry Raw packets
 

This is the latest recevied weather packets stored in our database for station/object KF7SOJ. If no packets are shown the sender has not sent any weather packets the latest 10 day(s).

<< 44 45 46 47 48 49 50 >>
Time Temp. Humidity Pressure Rain* Wind** Luminosity Snow
1788314077 23.33° C 40% 927 hPa 0 mm - 3 W/m² -
1788313772 23.33° C 40% 927.1 hPa 0 mm - 4 W/m² -
1788313469 23.33° C 40% 927.1 hPa 0 mm - 7 W/m² -
1788313167 23.89° C 40% 927.2 hPa 0 mm - 10 W/m² -
1788312864 23.89° C 39% 926.9 hPa 0 mm - 14 W/m² -
1788312559 23.89° C 37% 927 hPa 0 mm - 19 W/m² -
1788312254 24.44° C 37% 927.2 hPa 0 mm - 22 W/m² -
1788311949 24.44° C 36% 927.1 hPa 0 mm - 30 W/m² -
1788311645 24.44° C 37% 927.2 hPa 0 mm - 46 W/m² -
1788311344 24.44° C 41% 927.3 hPa 0 mm - 51 W/m² -
1788311040 25° C 41% 927.3 hPa 0 mm - 52 W/m² -
1788310739 25° C 40% 927.2 hPa 0 mm - 49 W/m² -
1788310438 25.56° C 37% 927.3 hPa 0 mm - 66 W/m² -
1788310134 26.67° C 30% 927.2 hPa 0 mm - 76 W/m² -
1788309828 26.67° C 31% 927.3 hPa 0 mm - 103 W/m² -
1788309524 26.67° C 33% 927.3 hPa 0 mm - 115 W/m² -
1788309223 26.67° C 34% 927.4 hPa 0 mm - 120 W/m² -
1788308919 26.11° C 35% 927.3 hPa 0 mm - 122 W/m² -
1788308618 26.11° C 32% 927.2 hPa 0 mm - 148 W/m² -
1788308314 27.22° C 29% 927.4 hPa 0 mm - 74 W/m² -
1788308009 27.22° C 28% 927.3 hPa 0 mm - 143 W/m² -
1788307704 27.22° C 28% 927.5 hPa 0 mm - 149 W/m² -
1788307404 27.78° C 27% 927.5 hPa 0 mm - 167 W/m² -
1788307099 27.78° C 27% 927.5 hPa 0 mm - 296 W/m² -
1788306800 28.89° C 26% 927.6 hPa 0 mm - 343 W/m² -

* Rain latest hour (hover to see other rain measurements)
** Current wind speed in m/s (hover to see current wind gust speed)